createdAt,value
2022-11-24T00:01:59.123Z,54.50
2022-11-24T00:04:31.284Z,52.00
2022-11-24T00:07:03.389Z,53.30
2022-11-24T00:09:35.130Z,53.30
2022-11-24T00:12:07.611Z,54.80
2022-11-24T00:14:39.380Z,56.40
2022-11-24T00:17:25.159Z,54.10
2022-11-24T00:19:57.006Z,54.50
2022-11-24T00:22:28.792Z,53.40
2022-11-24T00:25:00.616Z,53.40
2022-11-24T00:27:57.842Z,53.60
2022-11-24T00:30:46.628Z,55.80
2022-11-24T00:33:18.421Z,53.20
2022-11-24T00:35:57.308Z,55.40
2022-11-24T00:38:29.143Z,53.20
2022-11-24T00:41:00.946Z,57.50
2022-11-24T00:43:32.786Z,56.00
2022-11-24T00:46:04.876Z,56.90
2022-11-24T00:48:36.728Z,56.40
2022-11-24T00:51:11.007Z,57.50
2022-11-24T00:53:43.154Z,57.20
2022-11-24T00:56:15.642Z,55.20
2022-11-24T00:58:47.733Z,55.60
2022-11-24T01:01:21.659Z,51.30
2022-11-24T01:03:54.695Z,56.30
2022-11-24T01:06:27.691Z,58.30
2022-11-24T01:09:00.276Z,56.70
2022-11-24T01:11:55.434Z,59.90
2022-11-24T01:14:27.754Z,57.90
2022-11-24T01:16:59.579Z,61.00
2022-11-24T01:19:31.292Z,58.30
2022-11-24T01:22:03.108Z,57.20
2022-11-24T01:24:35.075Z,55.70
2022-11-24T01:27:07.100Z,57.70
2022-11-24T01:29:38.869Z,58.90
2022-11-24T01:32:10.750Z,58.20
2022-11-24T01:34:42.738Z,60.10
2022-11-24T01:37:14.623Z,58.10
2022-11-24T01:39:46.553Z,59.40
2022-11-24T01:42:18.434Z,58.70
2022-11-24T01:44:53.284Z,58.70
2022-11-24T01:47:34.661Z,60.80
2022-11-24T01:50:12.487Z,61.30
2022-11-24T01:52:47.721Z,61.40
2022-11-24T01:55:22.556Z,61.50
2022-11-24T01:57:58.754Z,61.70
2022-11-24T02:00:30.518Z,60.10
2022-11-24T02:03:02.469Z,64.90
2022-11-24T02:05:39.983Z,64.10
2022-11-24T02:08:17.258Z,62.20
2022-11-24T02:10:49.642Z,60.60
2022-11-24T02:13:22.789Z,65.40
2022-11-24T02:15:55.335Z,61.50
2022-11-24T02:18:27.259Z,60.70
2022-11-24T02:21:00.572Z,63.70
2022-11-24T02:23:39.760Z,63.90
2022-11-24T02:26:18.697Z,62.50
2022-11-24T02:28:51.418Z,60.60
2022-11-24T02:31:23.496Z,63.90
2022-11-24T02:33:56.680Z,60.90
2022-11-24T02:36:28.534Z,66.40
2022-11-24T02:39:00.339Z,66.00
2022-11-24T02:41:32.200Z,61.80
2022-11-24T02:44:04.444Z,63.40
2022-11-24T02:46:36.200Z,63.50
2022-11-24T02:49:08.085Z,63.10
2022-11-24T02:51:39.853Z,65.70
2022-11-24T02:54:11.641Z,62.00
2022-11-24T02:56:43.357Z,65.90
2022-11-24T02:59:15.122Z,61.50
2022-11-24T03:01:47.069Z,62.60
2022-11-24T03:04:18.954Z,63.90
2022-11-24T03:06:50.782Z,61.80
2022-11-24T03:09:22.816Z,63.80
2022-11-24T03:11:54.637Z,65.00
2022-11-24T03:14:26.511Z,62.70
2022-11-24T03:16:58.525Z,63.50
2022-11-24T03:19:30.368Z,61.90
2022-11-24T03:22:02.520Z,62.90
2022-11-24T03:24:34.595Z,59.50
2022-11-24T03:27:06.712Z,63.00
2022-11-24T03:29:38.514Z,58.90
2022-11-24T03:32:10.259Z,61.70
2022-11-24T03:34:42.036Z,58.20
2022-11-24T03:37:13.804Z,62.10
2022-11-24T03:39:45.577Z,59.80
2022-11-24T03:42:17.497Z,62.00
2022-11-24T03:44:49.312Z,64.00
2022-11-24T03:47:21.084Z,61.20
2022-11-24T03:49:52.848Z,61.90
2022-11-24T03:52:26.693Z,59.90
2022-11-24T03:54:58.450Z,63.50
2022-11-24T03:57:30.242Z,62.60
2022-11-24T04:00:02.381Z,64.40
2022-11-24T04:02:34.158Z,63.80
2022-11-24T04:05:06.495Z,63.10
2022-11-24T04:07:38.402Z,60.70
2022-11-24T04:10:16.316Z,61.70
2022-11-24T04:12:48.128Z,62.90
2022-11-24T04:15:21.141Z,62.30
2022-11-24T04:17:55.724Z,59.70
2022-11-24T04:20:27.930Z,60.60
2022-11-24T04:22:59.806Z,61.40
2022-11-24T04:25:31.778Z,62.00
2022-11-24T04:28:03.675Z,62.20
2022-11-24T04:30:36.293Z,60.20
2022-11-24T04:33:08.057Z,60.50
2022-11-24T04:35:39.921Z,61.40
2022-11-24T04:38:11.717Z,58.40
2022-11-24T04:40:43.566Z,58.00
2022-11-24T04:43:16.376Z,61.10
2022-11-24T04:45:48.390Z,56.30
2022-11-24T04:48:20.216Z,60.90
2022-11-24T04:50:52.085Z,57.60
2022-11-24T04:53:24.043Z,55.80
2022-11-24T04:55:55.854Z,59.90
2022-11-24T04:58:27.628Z,60.20
2022-11-24T05:00:59.403Z,60.00
2022-11-24T05:03:31.725Z,59.50
2022-11-24T05:06:03.857Z,56.90
2022-11-24T05:08:35.690Z,58.60
2022-11-24T05:11:08.849Z,63.60
2022-11-24T05:13:40.665Z,57.10
2022-11-24T05:16:12.939Z,57.60
2022-11-24T05:18:44.734Z,58.90
2022-11-24T05:21:17.254Z,59.30
2022-11-24T05:23:49.101Z,59.20
2022-11-24T05:26:22.676Z,59.40
2022-11-24T05:28:54.507Z,62.40
2022-11-24T05:31:26.363Z,58.90
2022-11-24T05:33:58.124Z,58.80
2022-11-24T05:36:47.785Z,63.00
2022-11-24T05:39:19.594Z,62.30
2022-11-24T05:41:51.424Z,60.30
2022-11-24T05:44:23.105Z,60.20
2022-11-24T05:46:55.453Z,60.20
2022-11-24T05:49:27.317Z,53.90
2022-11-24T05:51:59.072Z,54.00
2022-11-24T05:54:30.916Z,52.20
2022-11-24T05:57:02.724Z,59.10
2022-11-24T05:59:34.407Z,57.80
2022-11-24T06:02:06.283Z,59.60
2022-11-24T06:04:38.282Z,57.00
2022-11-24T06:07:30.907Z,57.40
2022-11-24T06:10:02.563Z,58.50
2022-11-24T06:12:34.287Z,58.00
2022-11-24T06:15:08.419Z,61.50
2022-11-24T06:17:40.829Z,56.10
2022-11-24T06:20:14.010Z,61.80
2022-11-24T06:22:45.747Z,61.10
2022-11-24T06:25:19.216Z,62.80
2022-11-24T06:27:51.017Z,61.70
2022-11-24T06:30:26.586Z,62.90
2022-11-24T06:32:58.692Z,63.30
2022-11-24T06:35:30.372Z,62.80
2022-11-24T06:38:02.167Z,63.40
2022-11-24T06:40:33.999Z,63.30
2022-11-24T06:43:05.769Z,61.60
2022-11-24T06:45:37.970Z,64.70
2022-11-24T06:48:10.069Z,61.80
2022-11-24T06:50:41.869Z,63.60
2022-11-24T06:53:13.816Z,62.30
2022-11-24T06:55:46.275Z,63.40
2022-11-24T06:58:18.059Z,62.50
2022-11-24T07:00:49.834Z,63.40
2022-11-24T07:03:22.173Z,62.90
2022-11-24T07:05:59.021Z,64.90
2022-11-24T07:08:31.148Z,66.30
2022-11-24T07:11:08.568Z,61.80
2022-11-24T07:13:40.367Z,62.30
2022-11-24T07:16:18.628Z,64.70
2022-11-24T07:18:52.366Z,60.90
2022-11-24T07:21:26.165Z,60.10
2022-11-24T07:23:59.487Z,58.70
2022-11-24T07:26:31.317Z,61.20
2022-11-24T07:29:03.188Z,61.50
2022-11-24T07:31:34.914Z,60.80
2022-11-24T07:34:06.627Z,60.40
2022-11-24T07:36:38.250Z,63.70
2022-11-24T07:39:10.106Z,63.00
2022-11-24T07:41:41.958Z,61.50
2022-11-24T07:44:16.396Z,65.00
2022-11-24T07:46:51.407Z,67.30
2022-11-24T07:49:23.180Z,71.50
2022-11-24T07:51:54.778Z,71.70
2022-11-24T07:54:26.702Z,69.60
2022-11-24T07:56:58.759Z,69.70
2022-11-24T07:59:30.587Z,68.30
2022-11-24T08:02:02.369Z,62.50
2022-11-24T08:27:00.474Z,64.80
2022-11-24T09:43:20.305Z,56.90
2022-11-24T09:46:05.658Z,59.60
2022-11-24T09:48:41.061Z,57.70
2022-11-24T09:51:16.104Z,58.20
2022-11-24T09:53:52.568Z,57.60
2022-11-24T09:56:27.247Z,59.50
2022-11-24T09:59:03.879Z,58.20
2022-11-24T10:01:38.009Z,60.70
2022-11-24T10:04:19.611Z,60.20
2022-11-24T10:06:58.871Z,57.00
2022-11-24T10:09:46.743Z,60.10
2022-11-24T10:12:31.779Z,58.20
2022-11-24T10:15:27.553Z,57.80
2022-11-24T10:18:22.035Z,60.20
2022-11-24T10:21:03.087Z,58.30
2022-11-24T10:23:43.804Z,56.90
2022-11-24T10:26:19.842Z,57.90
2022-11-24T10:28:57.976Z,59.50
2022-11-24T10:31:35.287Z,60.10
2022-11-24T10:34:14.915Z,58.50
2022-11-24T10:36:53.196Z,60.00
2022-11-24T10:39:33.683Z,58.70
2022-11-24T10:42:13.409Z,60.20
2022-11-24T10:44:45.901Z,59.90
2022-11-24T10:47:23.017Z,60.20
2022-11-24T10:50:03.942Z,60.00
2022-11-24T10:52:48.165Z,59.40
2022-11-24T10:55:21.691Z,56.70
2022-11-24T10:57:53.763Z,57.80
2022-11-24T11:00:36.528Z,61.30
2022-11-24T11:03:24.264Z,59.70
2022-11-24T11:06:00.541Z,57.60
2022-11-24T11:08:33.703Z,57.20
2022-11-24T11:11:31.439Z,56.70
2022-11-24T11:14:04.941Z,58.70
2022-11-24T11:16:39.234Z,58.30
2022-11-24T11:19:48.507Z,55.50
2022-11-24T11:22:28.190Z,57.50
2022-11-24T11:25:19.087Z,58.10
2022-11-24T11:27:51.043Z,61.60
2022-11-24T11:36:18.404Z,60.40
2022-11-24T11:38:50.435Z,59.10
2022-11-24T11:41:26.916Z,58.90
2022-11-24T11:44:11.855Z,59.20
2022-11-24T11:46:44.931Z,60.20
2022-11-24T11:49:16.993Z,60.10
2022-11-24T11:52:05.183Z,59.70
2022-11-24T11:54:55.130Z,58.60
2022-11-24T11:57:36.005Z,56.80
2022-11-24T12:00:16.561Z,61.10
2022-11-24T12:03:09.594Z,60.60
2022-11-24T12:05:52.214Z,61.50
2022-11-24T12:09:03.135Z,59.30
2022-11-24T12:11:45.027Z,62.20
2022-11-24T12:14:42.262Z,59.90
2022-11-24T12:17:31.036Z,61.00
2022-11-24T12:23:11.505Z,64.90
2022-11-24T12:25:46.599Z,62.00
2022-11-24T12:28:34.423Z,66.00
2022-11-24T12:31:11.920Z,63.80
2022-11-24T12:34:01.809Z,67.70
2022-11-24T12:36:48.893Z,65.20
2022-11-24T12:39:28.801Z,64.60
2022-11-24T12:42:10.611Z,64.40
2022-11-24T12:44:56.893Z,63.10
2022-11-24T12:47:35.247Z,61.40
2022-11-24T12:50:12.897Z,64.20
2022-11-24T12:52:54.160Z,64.20
2022-11-24T12:55:32.360Z,63.40
2022-11-24T12:58:12.974Z,64.50
2022-11-24T13:00:59.436Z,63.50
2022-11-24T13:03:42.599Z,63.30
2022-11-24T13:06:20.365Z,65.40
2022-11-24T13:11:56.743Z,63.30
2022-11-24T13:14:37.412Z,66.50
2022-11-24T13:17:32.880Z,65.20
2022-11-24T13:20:34.440Z,64.80
2022-11-24T13:23:21.206Z,65.90
2022-11-24T13:26:27.600Z,63.90
2022-11-24T13:29:17.887Z,63.50
2022-11-24T13:31:56.739Z,62.20
2022-11-24T13:35:04.676Z,65.90
2022-11-24T13:37:52.831Z,65.50
2022-11-24T13:40:59.900Z,69.70
2022-11-24T13:43:36.872Z,65.70
2022-11-24T13:46:12.390Z,65.00
2022-11-24T13:49:01.248Z,64.60
2022-11-24T13:51:33.133Z,67.70
2022-11-24T13:54:05.136Z,66.80
2022-11-24T13:56:36.847Z,66.10
2022-11-24T13:59:27.040Z,65.60
2022-11-24T14:02:01.063Z,64.60
2022-11-24T14:04:33.663Z,68.70
2022-11-24T14:10:18.123Z,69.50
2022-11-24T14:13:09.927Z,67.10
2022-11-24T14:15:41.648Z,67.40
2022-11-24T14:18:23.743Z,64.90
2022-11-24T14:20:55.355Z,67.00
2022-11-24T14:23:27.254Z,65.50
2022-11-24T14:26:00.883Z,69.40
2022-11-24T14:28:32.878Z,68.70
2022-11-24T14:31:20.458Z,71.60
2022-11-24T14:34:07.868Z,70.30
2022-11-24T14:36:39.771Z,67.60
2022-11-24T14:39:15.226Z,69.80
2022-11-24T14:41:54.328Z,68.30
2022-11-24T14:44:29.530Z,69.60
2022-11-24T14:47:06.348Z,67.50
2022-11-24T14:49:44.109Z,68.90
2022-11-24T14:52:19.102Z,67.70
2022-11-24T14:54:52.707Z,68.70
2022-11-24T14:57:27.767Z,69.80
2022-11-24T15:00:20.185Z,71.20
2022-11-24T15:02:55.353Z,69.70
2022-11-24T15:05:47.625Z,70.10
2022-11-24T15:08:19.548Z,69.40
2022-11-24T15:10:59.682Z,69.70
2022-11-24T15:13:37.113Z,69.10
2022-11-24T15:16:16.505Z,69.60
2022-11-24T15:18:50.661Z,70.70
2022-11-24T15:21:32.901Z,68.00
2022-11-24T15:24:18.453Z,71.90
2022-11-24T15:26:50.367Z,71.70
2022-11-24T15:29:22.407Z,72.00
2022-11-24T15:33:17.045Z,70.80
2022-11-24T15:35:49.148Z,69.40
2022-11-24T15:38:20.975Z,71.50
2022-11-24T15:40:55.395Z,73.70
2022-11-24T15:43:32.143Z,75.00
2022-11-24T15:46:05.130Z,76.50
2022-11-24T15:48:36.831Z,83.60
2022-11-24T15:51:12.627Z,76.20
2022-11-24T15:53:48.098Z,75.30
2022-11-24T15:56:26.431Z,69.80
2022-11-24T15:58:58.170Z,77.00
2022-11-24T16:01:33.748Z,75.30
2022-11-24T16:04:05.818Z,82.80
2022-11-24T16:06:37.566Z,79.50
2022-11-24T16:09:11.454Z,82.40
2022-11-24T16:11:43.165Z,96.60
2022-11-24T16:14:14.881Z,102.00
2022-11-24T16:16:46.754Z,104.30
2022-11-24T16:19:18.414Z,108.80
2022-11-24T16:21:51.102Z,103.90
2022-11-24T16:24:22.758Z,97.50
2022-11-24T16:26:54.584Z,96.70
2022-11-24T16:29:26.250Z,90.60
2022-11-24T16:31:58.692Z,79.70
2022-11-24T16:34:30.407Z,83.30
2022-11-24T16:37:02.045Z,81.60
2022-11-24T16:39:33.749Z,86.50
2022-11-24T16:42:06.218Z,89.20
2022-11-24T16:44:38.060Z,90.00
2022-11-24T16:47:09.958Z,96.20
2022-11-24T16:49:41.799Z,99.20
2022-11-24T16:52:13.697Z,97.60
2022-11-24T16:54:46.403Z,104.40
2022-11-24T16:57:18.171Z,109.30
2022-11-24T16:59:49.961Z,89.50
2022-11-24T17:02:23.285Z,94.50
2022-11-24T17:04:58.167Z,101.10
2022-11-24T17:07:29.895Z,109.10
2022-11-24T17:10:03.669Z,112.50
2022-11-24T17:13:03.089Z,110.40
2022-11-24T17:15:45.278Z,108.40
2022-11-24T17:18:26.570Z,104.50
2022-11-24T17:21:06.008Z,112.60
2022-11-24T17:23:41.428Z,99.80
2022-11-24T17:26:15.175Z,101.50
2022-11-24T17:28:46.850Z,96.30
2022-11-24T17:31:26.130Z,89.50
2022-11-24T17:34:01.187Z,86.80
2022-11-24T17:36:34.584Z,87.30
2022-11-24T17:39:08.068Z,76.80
2022-11-24T17:41:39.938Z,76.40
2022-11-24T17:44:14.581Z,77.60
2022-11-24T17:46:48.864Z,76.60
2022-11-24T17:49:21.272Z,75.60
2022-11-24T17:51:53.046Z,69.40
2022-11-24T17:54:45.298Z,68.10
2022-11-24T17:57:19.508Z,66.20
2022-11-24T17:59:51.632Z,71.60
2022-11-24T18:02:23.624Z,72.80
2022-11-24T18:04:55.370Z,73.80
2022-11-24T18:07:27.176Z,69.60
2022-11-24T18:09:59.028Z,78.90
2022-11-24T18:12:30.800Z,73.30
2022-11-24T18:15:02.427Z,75.00
2022-11-24T18:17:34.215Z,76.20
2022-11-24T18:20:12.955Z,75.90
2022-11-24T18:23:05.530Z,76.70
2022-11-24T18:25:37.336Z,75.50
2022-11-24T18:28:09.406Z,77.80
2022-11-24T18:30:41.147Z,73.20
2022-11-24T18:33:12.929Z,75.60
2022-11-24T18:35:44.696Z,79.40
2022-11-24T18:38:17.705Z,77.00
2022-11-24T18:40:55.395Z,80.30
2022-11-24T18:43:31.247Z,77.10
2022-11-24T18:46:06.487Z,78.60
2022-11-24T18:48:39.464Z,78.30
2022-11-24T18:51:14.660Z,78.40
2022-11-24T18:53:47.411Z,80.60
2022-11-24T18:56:19.437Z,80.50
2022-11-24T18:58:55.331Z,81.80
2022-11-24T19:01:30.861Z,86.20
2022-11-24T19:04:04.673Z,84.40
2022-11-24T19:06:39.720Z,82.60
2022-11-24T19:09:15.036Z,86.80
2022-11-24T19:11:47.895Z,82.60
2022-11-24T19:14:20.567Z,82.00
2022-11-24T19:16:52.712Z,77.30
2022-11-24T19:19:24.401Z,79.30
2022-11-24T19:21:56.310Z,75.80
2022-11-24T19:24:30.883Z,70.30
2022-11-24T19:27:02.736Z,70.70
2022-11-24T19:29:37.866Z,69.60
2022-11-24T19:32:16.086Z,69.00
2022-11-24T19:34:47.765Z,68.80
2022-11-24T19:37:19.484Z,64.50
2022-11-24T19:39:51.197Z,69.90
2022-11-24T19:42:22.887Z,68.40
2022-11-24T19:44:56.629Z,62.20
2022-11-24T19:47:28.995Z,63.10
2022-11-24T19:50:00.730Z,60.40
2022-11-24T19:52:34.505Z,60.50
2022-11-24T19:55:07.138Z,60.90
2022-11-24T19:57:38.853Z,59.40
2022-11-24T20:00:24.014Z,59.60
2022-11-24T20:02:57.781Z,62.40
2022-11-24T20:05:29.524Z,59.10
2022-11-24T20:08:01.214Z,57.90
2022-11-24T20:10:33.026Z,58.30
2022-11-24T20:13:04.674Z,59.20
2022-11-24T20:15:37.420Z,55.40
2022-11-24T20:18:09.150Z,63.00
2022-11-24T20:20:40.835Z,59.60
2022-11-24T20:23:12.571Z,58.60
2022-11-24T20:25:44.260Z,59.60
2022-11-24T20:28:15.924Z,60.90
2022-11-24T20:30:47.611Z,57.70
2022-11-24T20:33:19.216Z,58.10
2022-11-24T20:35:50.815Z,59.10
2022-11-24T20:38:22.505Z,53.70
2022-11-24T20:40:54.533Z,54.70
2022-11-24T20:43:26.209Z,52.90
2022-11-24T20:45:58.051Z,52.90
2022-11-24T20:48:29.696Z,54.30
2022-11-24T20:51:06.946Z,53.20
2022-11-24T20:53:39.122Z,48.20
2022-11-24T20:56:13.852Z,45.60
2022-11-24T20:58:46.601Z,48.30
2022-11-24T21:01:28.408Z,46.80
2022-11-24T21:04:02.061Z,47.60
2022-11-24T21:06:33.753Z,48.70
2022-11-24T21:09:06.363Z,44.70
2022-11-24T21:11:40.496Z,44.90
2022-11-24T21:14:14.238Z,46.30
2022-11-24T21:16:46.004Z,45.00
2022-11-24T21:19:18.926Z,42.20
2022-11-24T21:21:50.946Z,44.40
2022-11-24T21:24:22.862Z,43.70
2022-11-24T21:26:54.660Z,46.40
2022-11-24T21:29:27.676Z,42.50
2022-11-24T21:31:59.435Z,41.90
2022-11-24T21:34:31.376Z,42.50
2022-11-24T21:37:03.052Z,41.70
2022-11-24T21:39:36.452Z,42.90
2022-11-24T21:42:09.095Z,40.00
2022-11-24T21:44:40.738Z,39.80
2022-11-24T21:47:12.387Z,38.00
2022-11-24T21:49:44.031Z,37.70
2022-11-24T21:52:15.705Z,37.00
2022-11-24T21:54:49.103Z,36.30
2022-11-24T21:57:23.213Z,34.00
2022-11-24T22:00:26.584Z,35.30
2022-11-24T22:02:58.362Z,34.70
2022-11-24T22:05:30.033Z,35.40
2022-11-24T22:08:01.721Z,37.70
2022-11-24T22:10:33.358Z,38.50
2022-11-24T22:13:05.075Z,38.20
2022-11-24T22:15:46.175Z,36.70
2022-11-24T22:18:17.846Z,39.00
2022-11-24T22:20:57.359Z,37.30
2022-11-24T22:23:34.062Z,41.90
2022-11-24T22:26:08.879Z,39.90
2022-11-24T22:28:43.887Z,38.70
2022-11-24T22:31:17.731Z,40.00
2022-11-24T22:33:49.927Z,41.20
2022-11-24T22:36:22.959Z,40.80
2022-11-24T22:39:03.228Z,41.90
2022-11-24T22:41:36.695Z,41.10
2022-11-24T22:44:10.106Z,41.70
2022-11-24T22:46:41.716Z,44.70
2022-11-24T22:49:13.539Z,44.10
2022-11-24T22:51:45.579Z,41.30
2022-11-24T22:54:17.252Z,42.30
2022-11-24T22:56:48.950Z,42.10
2022-11-24T22:59:36.835Z,43.40
2022-11-24T23:02:08.980Z,42.20
2022-11-24T23:04:40.651Z,42.90
2022-11-24T23:07:12.339Z,42.80
2022-11-24T23:09:44.023Z,42.90
2022-11-24T23:12:15.714Z,43.80
2022-11-24T23:14:47.489Z,45.30
2022-11-24T23:17:19.117Z,45.90
2022-11-24T23:19:53.145Z,44.60
2022-11-24T23:22:24.828Z,43.20
2022-11-24T23:24:56.459Z,43.90
2022-11-24T23:27:28.087Z,43.10
2022-11-24T23:29:59.790Z,42.40
2022-11-24T23:32:31.415Z,41.30
2022-11-24T23:35:03.062Z,41.70
2022-11-24T23:37:59.859Z,42.40
2022-11-24T23:40:31.119Z,42.90
2022-11-24T23:43:02.799Z,44.10
2022-11-24T23:45:34.548Z,43.60
2022-11-24T23:48:08.609Z,46.60
2022-11-24T23:50:40.237Z,45.50
2022-11-24T23:53:12.094Z,46.30
2022-11-24T23:55:43.747Z,46.00
2022-11-24T23:58:15.328Z,47.10
